Time;durP1;ratioP1;P1;durP2;ratioP2;P2;SDS_P1;SDS_P2;PMS_P1;PMS_P2;Temp;Humidity;BMP_temperature;BMP_pressure;BME280_temperature;BME280_humidity;BME280_pressure;Samples;Min_cycle;Max_cycle;Signal;HPM_P1;HPM_P2
2021/07/29 00:01:51;;;;;;;;;;;;;;;24.58;54.64;100665.91;5015474;28;1419;-40
2021/07/29 00:04:19;;;;;;;;;;;;;;;24.55;52.83;100655.44;5018551;28;1842;-40
2021/07/29 00:06:49;;;;;;;;;;;;;;;24.55;53.32;100671.66;5033345;28;1979;-41
2021/07/29 00:09:18;;;;;;;;;;;;;;;24.58;53.63;100656.94;5016238;28;1937;-41
2021/07/29 00:11:44;;;;;;;;;;;;;;;24.60;54.30;100663.03;5016418;28;1566;-41
2021/07/29 00:14:14;;;;;;;;;;;;;;;24.52;54.09;100649.53;5028668;28;1477;-40
2021/07/29 00:16:45;;;;;;;;;;;;;;;24.52;55.45;100650.38;5024423;28;1934;-41
2021/07/29 00:19:11;;;;;;;;;;;;;;;24.50;55.72;100651.53;5031954;28;1812;-41
2021/07/29 00:21:44;;;;;;;;;;;;;;;24.36;53.44;100645.84;5030033;28;1729;-40
2021/07/29 00:24:16;;;;;;;;;;;;;;;24.48;54.81;100646.31;5023455;28;1446;-40
2021/07/29 00:26:44;;;;;;;;;;;;;;;24.54;55.97;100648.34;5015864;28;1910;-40
2021/07/29 00:29:15;;;;;;;;;;;;;;;24.55;55.37;100650.03;5027040;28;1648;-40
2021/07/29 00:31:42;;;;;;;;;;;;;;;24.47;54.37;100620.31;5023313;28;2158;-41
2021/07/29 00:34:10;;;;;;;;;;;;;;;24.55;55.54;100620.31;5017705;28;1593;-40
2021/07/29 00:36:44;;;;;;;;;;;;;;;24.53;56.13;100625.03;5022994;28;1819;-41
2021/07/29 00:39:14;;;;;;;;;;;;;;;24.56;55.87;100624.66;5024134;28;1076;-40
2021/07/29 00:41:44;;;;;;;;;;;;;;;24.50;55.74;100630.78;5029449;28;1581;-40
2021/07/29 00:44:14;;;;;;;;;;;;;;;24.52;56.08;100634.16;5023566;28;2058;-41
2021/07/29 00:46:43;;;;;;;;;;;;;;;24.51;56.31;100621.66;5020644;28;1995;-40
2021/07/29 00:49:13;;;;;;;;;;;;;;;24.54;56.47;100620.47;5017499;28;1688;-40
2021/07/29 00:51:43;;;;;;;;;;;;;;;24.56;55.94;100616.56;5016886;28;1608;-40
2021/07/29 00:54:14;;;;;;;;;;;;;;;24.50;56.21;100619.97;5021165;28;1094;-40
2021/07/29 00:56:45;;;;;;;;;;;;;;;24.45;56.29;100611.50;5015930;28;1780;-40
2021/07/29 01:01:56;;;;;;;;;;;;;;;24.33;55.81;100605.66;5017240;28;1597;-40
2021/07/29 01:04:26;;;;;;;;;;;;;;;24.42;55.91;100601.88;5017205;28;1878;-40
2021/07/29 01:07:13;;;;;;;;;;;;;;;24.38;55.64;100586.22;5022404;28;2144;-41
2021/07/29 01:09:41;;;;;;;;;;;;;;;24.35;54.68;100584.72;5025728;28;1812;-40
2021/07/29 01:12:14;;;;;;;;;;;;;;;24.33;55.87;100575.06;5023817;28;1933;-40
2021/07/29 01:14:40;;;;;;;;;;;;;;;24.48;56.92;100589.53;5028454;28;1734;-40
2021/07/29 01:19:50;;;;;;;;;;;;;;;24.32;56.27;100584.22;5014009;28;2764;-41
2021/07/29 01:22:22;;;;;;;;;;;;;;;24.38;55.88;100599.72;5019113;28;1609;-40
2021/07/29 01:24:52;;;;;;;;;;;;;;;24.42;56.35;100601.06;5020336;28;1652;-40
2021/07/29 01:27:21;;;;;;;;;;;;;;;24.39;56.02;100596.00;5024587;28;1906;-40
2021/07/29 01:29:51;;;;;;;;;;;;;;;24.46;55.81;100596.97;5032869;28;1860;-40
2021/07/29 01:32:21;;;;;;;;;;;;;;;24.41;55.68;100602.94;5023375;28;2059;-40
2021/07/29 01:34:51;;;;;;;;;;;;;;;24.42;55.68;100595.66;5024931;28;1827;-40
2021/07/29 01:37:30;;;;;;;;;;;;;;;24.48;55.34;100605.75;5026075;28;1753;-40
2021/07/29 01:40:00;;;;;;;;;;;;;;;24.30;55.35;100603.28;5025458;28;1674;-40
2021/07/29 01:42:30;;;;;;;;;;;;;;;24.28;55.43;100612.59;5025316;28;1812;-40
2021/07/29 01:44:57;;;;;;;;;;;;;;;24.21;54.94;100605.19;5019309;28;1600;-40
2021/07/29 01:47:26;;;;;;;;;;;;;;;24.25;54.91;100596.72;5032187;28;1981;-40
2021/07/29 01:49:54;;;;;;;;;;;;;;;24.28;55.37;100605.34;5015349;28;1410;-40
2021/07/29 01:52:25;;;;;;;;;;;;;;;24.28;56.07;100602.63;5028816;28;1710;-40
2021/07/29 01:54:54;;;;;;;;;;;;;;;24.29;55.21;100603.47;5020461;28;1789;-40
2021/07/29 01:57:22;;;;;;;;;;;;;;;24.27;54.62;100597.41;5024923;28;1729;-40
2021/07/29 01:59:49;;;;;;;;;;;;;;;24.27;55.61;100590.13;5020834;28;1754;-40
2021/07/29 02:02:18;;;;;;;;;;;;;;;24.25;55.15;100586.75;5110091;23;3820;-40
2021/07/29 02:04:49;;;;;;;;;;;;;;;24.34;56.79;100599.22;4997868;28;1905;-40
2021/07/29 02:07:19;;;;;;;;;;;;;;;24.27;54.59;100602.78;4997087;28;1908;-40
2021/07/29 02:09:47;;;;;;;;;;;;;;;24.25;55.60;100580.50;5001276;28;1777;-40
2021/07/29 02:12:14;;;;;;;;;;;;;;;24.27;54.71;100602.78;4999333;28;1829;-40
2021/07/29 02:14:40;;;;;;;;;;;;;;;24.26;56.79;100593.03;4998054;28;1849;-40
2021/07/29 02:19:48;;;;;;;;;;;;;;;24.40;55.70;100605.78;4996556;28;2393;-40
2021/07/29 02:22:36;;;;;;;;;;;;;;;24.41;56.00;100600.22;4997695;28;1844;-40
2021/07/29 02:25:07;;;;;;;;;;;;;;;24.34;55.72;100591.13;4997942;28;1712;-40
2021/07/29 02:27:38;;;;;;;;;;;;;;;24.28;56.17;100593.69;5011740;28;1975;-40
2021/07/29 02:30:06;;;;;;;;;;;;;;;24.24;54.13;100595.06;5014722;28;1985;-40
2021/07/29 02:32:43;;;;;;;;;;;;;;;24.24;53.98;100598.59;5006465;28;2061;-40
2021/07/29 02:35:10;;;;;;;;;;;;;;;24.30;55.38;100592.50;5005252;28;1801;-40
2021/07/29 02:37:40;;;;;;;;;;;;;;;24.29;55.10;100590.81;5014667;28;2048;-40
2021/07/29 02:40:12;;;;;;;;;;;;;;;24.30;54.86;100570.88;5006407;28;1826;-40
2021/07/29 02:42:42;;;;;;;;;;;;;;;24.28;55.56;100593.69;5014819;28;1779;-40
2021/07/29 02:45:09;;;;;;;;;;;;;;;24.28;55.17;100591.81;4999078;28;1792;-40
2021/07/29 02:47:39;;;;;;;;;;;;;;;24.19;54.55;100582.03;4997187;28;1906;-41
2021/07/29 02:50:07;;;;;;;;;;;;;;;24.25;55.43;100596.72;5000594;28;1075;-40
2021/07/29 02:52:36;;;;;;;;;;;;;;;24.21;55.10;100588.13;5004658;28;1799;-40
2021/07/29 02:55:11;;;;;;;;;;;;;;;24.26;55.47;100579.50;5015678;28;1138;-40
2021/07/29 02:57:41;;;;;;;;;;;;;;;24.22;55.35;100579.84;5014335;28;1893;-40
2021/07/29 03:00:08;;;;;;;;;;;;;;;24.25;55.14;100586.75;5010580;28;1432;-40
2021/07/29 03:02:39;;;;;;;;;;;;;;;24.26;55.94;100576.81;5012968;28;1448;-39
2021/07/29 03:05:06;;;;;;;;;;;;;;;24.31;55.90;100577.09;4995711;28;2677;-40
2021/07/29 03:07:33;;;;;;;;;;;;;;;24.26;55.85;100595.72;5003494;28;1980;-40
2021/07/29 03:09:59;;;;;;;;;;;;;;;24.22;56.95;100590.66;5009226;28;1710;-40
2021/07/29 03:12:27;;;;;;;;;;;;;;;24.28;56.22;100588.28;5011709;28;1787;-40
2021/07/29 03:14:55;;;;;;;;;;;;;;;24.24;56.06;100581.53;5009580;28;1578;-40
2021/07/29 03:17:22;;;;;;;;;;;;;;;24.20;55.96;100592.69;5007936;28;1698;-40
2021/07/29 03:19:50;;;;;;;;;;;;;;;24.21;57.19;100593.53;5002796;28;1344;-40
2021/07/29 03:22:17;;;;;;;;;;;;;;;24.21;57.02;100588.13;5003239;28;1850;-40
2021/07/29 03:24:52;;;;;;;;;;;;;;;24.21;56.63;100594.38;5011426;28;2049;-41
2021/07/29 03:27:19;;;;;;;;;;;;;;;24.17;56.64;100589.47;5006327;28;1977;-40
2021/07/29 03:29:46;;;;;;;;;;;;;;;24.17;56.79;100603.84;5007209;28;1751;-40
2021/07/29 03:32:15;;;;;;;;;;;;;;;24.10;56.49;100594.75;5009058;28;1701;-40
2021/07/29 03:34:46;;;;;;;;;;;;;;;23.96;56.94;100596.31;5009657;28;1663;-40
2021/07/29 03:37:14;;;;;;;;;;;;;;;24.08;56.45;100618.41;5009311;28;1582;-40
2021/07/29 03:39:41;;;;;;;;;;;;;;;24.09;57.37;100617.38;5008616;28;1781;-40
2021/07/29 03:42:08;;;;;;;;;;;;;;;24.14;56.72;100606.91;4995047;28;1758;-40
2021/07/29 03:44:34;;;;;;;;;;;;;;;24.17;57.16;100613.81;5004874;28;1759;-41
2021/07/29 03:47:02;;;;;;;;;;;;;;;24.24;57.20;100608.56;5005188;28;1911;-40
2021/07/29 03:49:34;;;;;;;;;;;;;;;24.28;56.89;100620.72;5012938;28;1638;-41
2021/07/29 03:52:03;;;;;;;;;;;;;;;24.25;57.37;100621.88;5011310;28;1908;-40
2021/07/29 03:54:33;;;;;;;;;;;;;;;24.29;57.44;100627.78;5002555;28;1531;-40
2021/07/29 03:56:59;;;;;;;;;;;;;;;24.28;57.70;100634.22;5011033;28;1951;-40
2021/07/29 03:59:29;;;;;;;;;;;;;;;24.21;57.48;100621.41;4999121;28;1736;-40
2021/07/29 04:01:58;;;;;;;;;;;;;;;23.99;57.25;100624.81;5000674;28;1298;-40
2021/07/29 04:04:28;;;;;;;;;;;;;;;23.90;57.82;100628.56;5010686;28;1972;-41
2021/07/29 04:07:00;;;;;;;;;;;;;;;24.02;57.67;100622.63;5009759;28;1902;-40
2021/07/29 04:09:28;;;;;;;;;;;;;;;24.14;57.25;100609.59;5012724;28;1769;-40
2021/07/29 04:11:54;;;;;;;;;;;;;;;24.28;57.31;100601.78;5008018;28;1920;-41
2021/07/29 04:14:21;;;;;;;;;;;;;;;24.40;57.72;100627.41;4998454;28;1515;-40
2021/07/29 04:16:48;;;;;;;;;;;;;;;24.40;57.42;100613.91;5008231;28;1989;-40
2021/07/29 04:19:15;;;;;;;;;;;;;;;24.46;56.98;100606.97;5011525;28;1838;-40
2021/07/29 04:21:44;;;;;;;;;;;;;;;24.40;57.40;100611.19;4995705;28;1772;-40
2021/07/29 04:24:13;;;;;;;;;;;;;;;24.53;56.90;100625.03;5011661;28;1598;-40
2021/07/29 04:26:40;;;;;;;;;;;;;;;24.52;57.82;100628.75;5008272;28;1791;-41
2021/07/29 04:29:17;;;;;;;;;;;;;;;24.56;57.64;100635.50;5001659;28;1965;-40
2021/07/29 04:31:45;;;;;;;;;;;;;;;24.60;57.51;100619.75;5006039;28;1891;-40
2021/07/29 04:34:11;;;;;;;;;;;;;;;24.65;57.53;100603.00;4995490;28;1953;-40
2021/07/29 04:36:40;;;;;;;;;;;;;;;24.71;57.46;100619.38;5008195;28;1959;-40
2021/07/29 04:39:07;;;;;;;;;;;;;;;24.74;56.89;100610.06;5000260;28;1498;-40
2021/07/29 04:41:38;;;;;;;;;;;;;;;24.74;56.61;100621.72;5010344;28;2186;-40
2021/07/29 04:44:07;;;;;;;;;;;;;;;24.82;56.67;100628.94;5004055;28;2041;-40
2021/07/29 04:46:34;;;;;;;;;;;;;;;24.88;56.66;100628.22;5009252;28;1942;-40
2021/07/29 04:49:06;;;;;;;;;;;;;;;24.87;56.96;100631.97;4995227;28;1910;-40
2021/07/29 04:51:35;;;;;;;;;;;;;;;24.81;57.76;100621.88;4994413;28;1597;-40
2021/07/29 04:54:02;;;;;;;;;;;;;;;24.85;57.01;100622.31;5001928;28;1563;-40
2021/07/29 04:56:32;;;;;;;;;;;;;;;24.84;57.56;100632.31;4994320;28;1839;-40
2021/07/29 04:59:00;;;;;;;;;;;;;;;24.87;57.60;100628.41;5011331;28;1548;-40
2021/07/29 05:01:29;;;;;;;;;;;;;;;24.88;58.19;100621.97;5003888;28;1809;-40
2021/07/29 05:03:58;;;;;;;;;;;;;;;24.90;57.64;100631.59;4993733;28;2155;-40
2021/07/29 05:06:24;;;;;;;;;;;;;;;24.89;57.90;100621.81;4991945;28;2631;-41
2021/07/29 05:08:59;;;;;;;;;;;;;;;24.95;58.90;100612.97;5006047;28;1979;-40
2021/07/29 05:11:27;;;;;;;;;;;;;;;24.87;57.72;100631.97;5003466;28;2005;-41
2021/07/29 05:13:57;;;;;;;;;;;;;;;24.87;57.73;100628.41;5009335;28;1838;-40
2021/07/29 05:16:24;;;;;;;;;;;;;;;24.87;58.44;100623.00;5005172;28;1938;-40
2021/07/29 05:18:52;;;;;;;;;;;;;;;24.92;57.90;100632.25;5001246;28;1769;-40
2021/07/29 05:21:19;;;;;;;;;;;;;;;24.94;58.83;100634.78;5012115;28;1754;-40
2021/07/29 05:23:52;;;;;;;;;;;;;;;24.94;58.36;100643.75;5010958;28;1981;-40
2021/07/29 05:26:23;;;;;;;;;;;;;;;24.94;58.59;100638.34;5009526;28;1650;-40
2021/07/29 05:28:51;;;;;;;;;;;;;;;24.95;57.96;100656.25;5006195;28;1902;-41
2021/07/29 05:31:17;;;;;;;;;;;;;;;24.90;58.15;100642.41;5005736;28;1734;-41
2021/07/29 05:33:48;;;;;;;;;;;;;;;24.89;58.39;100639.88;4998437;28;1007;-40
2021/07/29 05:36:17;;;;;;;;;;;;;;;24.93;59.35;100636.66;5006212;28;1979;-40
2021/07/29 05:38:46;;;;;;;;;;;;;;;24.77;58.86;100636.72;5002952;28;1800;-40
2021/07/29 05:41:15;;;;;;;;;;;;;;;23.96;59.46;100633.28;5000632;28;1722;-40
2021/07/29 05:43:41;;;;;;;;;;;;;;;23.16;58.98;100634.78;4999892;28;1456;-40
2021/07/29 05:46:08;;;;;;;;;;;;;;;22.72;59.20;100634.97;5007397;28;1749;-39
2021/07/29 05:48:36;;;;;;;;;;;;;;;22.48;58.62;100638.41;5001549;28;1910;-39
2021/07/29 05:51:07;;;;;;;;;;;;;;;22.23;58.42;100623.94;5001909;28;1487;-40
2021/07/29 05:53:34;;;;;;;;;;;;;;;22.20;57.78;100643.97;5000647;28;1584;-40
2021/07/29 05:56:00;;;;;;;;;;;;;;;22.19;57.82;100633.34;5008160;28;1663;-40
2021/07/29 05:58:30;;;;;;;;;;;;;;;22.23;57.47;100630.16;5006389;28;1478;-39
2021/07/29 06:00:58;;;;;;;;;;;;;;;22.39;56.84;100637.53;5009080;28;1615;-40
2021/07/29 06:03:34;;;;;;;;;;;;;;;22.38;57.52;100626.91;5001887;28;1470;-39
2021/07/29 06:06:02;;;;;;;;;;;;;;;22.46;57.88;100623.41;4996289;28;1842;-39
2021/07/29 06:08:31;;;;;;;;;;;;;;;22.50;58.04;100631.03;5006958;28;1931;-39
2021/07/29 06:10:58;;;;;;;;;;;;;;;22.53;58.13;100633.38;4999938;28;2010;-39
2021/07/29 06:13:27;;;;;;;;;;;;;;;22.52;58.18;100628.13;5011119;28;1576;-39
2021/07/29 06:15:54;;;;;;;;;;;;;;;22.50;58.44;100625.63;5006925;28;1917;-40
2021/07/29 06:18:24;;;;;;;;;;;;;;;22.58;58.12;100631.06;5006282;28;1777;-40
2021/07/29 06:20:51;;;;;;;;;;;;;;;22.61;58.04;100636.09;5011925;28;1764;-39
2021/07/29 06:23:20;;;;;;;;;;;;;;;22.53;58.30;100624.47;4997359;28;1855;-40
2021/07/29 06:25:51;;;;;;;;;;;;;;;22.56;58.42;100635.75;4992860;28;1040;-41
2021/07/29 06:28:18;;;;;;;;;;;;;;;22.56;58.37;100624.97;4994725;28;1985;-40
2021/07/29 06:30:44;;;;;;;;;;;;;;;22.58;58.50;100633.75;5007137;28;1617;-39
2021/07/29 06:33:11;;;;;;;;;;;;;;;22.60;58.58;100626.34;5010643;28;1936;-39
2021/07/29 06:35:37;;;;;;;;;;;;;;;22.62;58.63;100632.41;4999181;28;1673;-39
2021/07/29 06:38:05;;;;;;;;;;;;;;;22.59;58.80;100624.63;5007859;28;1747;-39
2021/07/29 06:40:32;;;;;;;;;;;;;;;22.67;58.54;100617.59;5003855;28;1703;-39
2021/07/29 06:42:59;;;;;;;;;;;;;;;22.59;58.80;100616.56;4998073;28;1649;-39
2021/07/29 06:45:35;;;;;;;;;;;;;;;22.54;59.66;100599.19;5012246;28;1659;-39
2021/07/29 06:48:01;;;;;;;;;;;;;;;22.55;59.74;100601.72;5009737;28;1902;-39
2021/07/29 06:50:28;;;;;;;;;;;;;;;22.51;60.91;100605.75;5015165;28;1259;-39
2021/07/29 06:52:56;;;;;;;;;;;;;;;22.48;61.82;100602.53;5013438;28;1548;-39
2021/07/29 06:55:22;;;;;;;;;;;;;;;22.46;61.43;100602.69;5013981;28;1501;-39
2021/07/29 06:57:49;;;;;;;;;;;;;;;22.47;62.37;100612.47;5009925;28;1843;-40
2021/07/29 07:00:20;;;;;;;;;;;;;;;22.50;62.12;100608.59;5009647;28;1944;-40
2021/07/29 07:02:49;;;;;;;;;;;;;;;22.47;62.51;100599.00;5014242;28;1761;-39
2021/07/29 07:05:16;;;;;;;;;;;;;;;22.55;62.62;100601.72;5012317;28;1666;-39
2021/07/29 07:07:42;;;;;;;;;;;;;;;22.57;62.45;100599.69;5013129;28;1891;-40
2021/07/29 07:10:10;;;;;;;;;;;;;;;22.58;62.70;100587.94;5012160;28;1720;-40
2021/07/29 07:12:36;;;;;;;;;;;;;;;22.58;62.37;100596.00;5003472;28;1666;-39
2021/07/29 07:15:04;;;;;;;;;;;;;;;22.58;62.25;100593.31;5004966;28;1616;-39
2021/07/29 07:17:32;;;;;;;;;;;;;;;22.48;62.20;100589.88;5013298;28;1631;-39
2021/07/29 07:20:00;;;;;;;;;;;;;;;22.58;61.63;100590.63;5005939;28;1104;-40
2021/07/29 07:22:27;;;;;;;;;;;;;;;22.72;60.70;100596.38;5011200;28;1932;-39
2021/07/29 07:24:54;;;;;;;;;;;;;;;22.78;61.80;100593.00;5013892;28;1688;-40
2021/07/29 07:27:21;;;;;;;;;;;;;;;22.84;62.85;100576.22;5006971;28;1588;-39
2021/07/29 07:29:48;;;;;;;;;;;;;;;22.91;63.66;100590.69;5007569;28;1902;-40
2021/07/29 07:32:18;;;;;;;;;;;;;;;22.92;63.31;100587.00;5007994;28;1739;-41
2021/07/29 07:34:49;;;;;;;;;;;;;;;22.80;63.39;100593.69;5000089;28;2035;-40
2021/07/29 07:37:19;;;;;;;;;;;;;;;22.76;63.46;100582.41;5004616;28;1714;-40
2021/07/29 07:39:46;;;;;;;;;;;;;;;22.71;63.93;100583.91;5018957;28;1725;-40
2021/07/29 07:42:13;;;;;;;;;;;;;;;22.74;63.63;100599.75;5006502;28;1896;-40
2021/07/29 07:44:39;;;;;;;;;;;;;;;22.71;63.98;100611.72;5007608;28;1740;-40
2021/07/29 07:47:06;;;;;;;;;;;;;;;22.71;63.86;100606.31;5010950;28;1565;-40
2021/07/29 07:49:33;;;;;;;;;;;;;;;22.74;63.98;100599.75;5010868;28;2120;-39
2021/07/29 07:52:02;;;;;;;;;;;;;;;22.75;63.82;100607.69;5002082;28;1725;-40
2021/07/29 07:54:31;;;;;;;;;;;;;;;22.68;64.23;100586.94;5013545;28;1465;-40
2021/07/29 07:57:00;;;;;;;;;;;;;;;22.70;64.41;100603.78;5012308;28;1885;-40
2021/07/29 07:59:31;;;;;;;;;;;;;;;22.69;64.29;100605.63;5003615;28;1724;-40
2021/07/29 08:02:01;;;;;;;;;;;;;;;22.75;63.89;100604.97;5001529;28;1953;-41
2021/07/29 08:04:28;;;;;;;;;;;;;;;22.79;63.90;100610.91;5008343;28;1865;-41
2021/07/29 08:06:55;;;;;;;;;;;;;;;22.78;63.74;100628.06;5009671;28;1665;-40
2021/07/29 08:09:23;;;;;;;;;;;;;;;22.72;63.92;100645.75;5001718;28;1910;-40
2021/07/29 08:11:50;;;;;;;;;;;;;;;22.69;64.16;100624.50;4994769;28;1789;-40
2021/07/29 08:14:22;;;;;;;;;;;;;;;22.69;64.04;100629.91;4995989;28;1723;-40
2021/07/29 08:16:48;;;;;;;;;;;;;;;22.80;64.03;100620.66;5008369;28;2165;-40
2021/07/29 08:19:18;;;;;;;;;;;;;;;22.84;64.23;100611.25;5007887;28;1770;-40
2021/07/29 08:21:47;;;;;;;;;;;;;;;22.89;64.22;100618.84;5002674;28;1756;-40
2021/07/29 08:24:15;;;;;;;;;;;;;;;22.82;64.64;100614.13;5013876;28;1034;-40
2021/07/29 08:26:46;;;;;;;;;;;;;;;22.79;64.20;100629.75;5008332;28;1845;-40
2021/07/29 08:29:20;;;;;;;;;;;;;;;22.61;64.18;100613.69;5005795;28;1914;-40
2021/07/29 08:31:47;;;;;;;;;;;;;;;22.45;64.04;100609.09;5007646;28;1648;-39
2021/07/29 08:34:13;;;;;;;;;;;;;;;22.34;64.53;100595.91;5005149;28;1627;-40
2021/07/29 08:36:42;;;;;;;;;;;;;;;22.35;63.79;100603.81;5003837;28;1673;-40
2021/07/29 08:39:14;;;;;;;;;;;;;;;22.30;63.83;100603.44;5013390;28;1804;-40
2021/07/29 08:41:41;;;;;;;;;;;;;;;22.25;63.84;100595.03;5009039;28;2097;-40
2021/07/29 08:44:13;;;;;;;;;;;;;;;22.19;63.64;100590.25;4999972;28;1811;-40
2021/07/29 08:46:47;;;;;;;;;;;;;;;22.23;63.68;100581.69;5003506;28;1968;-40
2021/07/29 08:49:17;;;;;;;;;;;;;;;22.23;63.62;100599.69;5010052;28;1906;-40
2021/07/29 08:51:50;;;;;;;;;;;;;;;22.26;63.77;100582.41;5012429;28;1921;-41
2021/07/29 08:54:17;;;;;;;;;;;;;;;22.28;63.22;100591.16;5012822;28;1587;-41
2021/07/29 08:56:46;;;;;;;;;;;;;;;22.18;63.54;100591.25;5012029;28;1904;-40
2021/07/29 08:59:16;;;;;;;;;;;;;;;22.13;63.71;100569.34;4993991;28;2117;-41
2021/07/29 09:01:44;;;;;;;;;;;;;;;22.20;63.46;100576.63;5000749;28;1761;-41
2021/07/29 09:04:21;;;;;;;;;;;;;;;22.22;63.30;100585.41;4995625;28;2127;-40
2021/07/29 09:07:09;;;;;;;;;;;;;;;22.34;62.96;100588.69;5008501;28;1709;-40
2021/07/29 09:09:41;;;;;;;;;;;;;;;22.49;61.84;100571.91;5006746;28;1976;-40
2021/07/29 09:12:16;;;;;;;;;;;;;;;22.75;61.89;100575.31;4999989;28;1586;-40
2021/07/29 09:14:52;;;;;;;;;;;;;;;22.82;62.00;100572.84;5006207;28;1598;-41
2021/07/29 09:17:21;;;;;;;;;;;;;;;22.94;61.80;100570.63;5009747;28;1879;-40
2021/07/29 09:19:53;;;;;;;;;;;;;;;22.92;63.10;100576.22;5006925;28;1506;-40
2021/07/29 09:22:40;;;;;;;;;;;;;;;22.82;64.36;100570.97;5010096;28;1943;-41
2021/07/29 09:25:08;;;;;;;;;;;;;;;22.70;65.09;100560.66;4994393;28;1776;-41
2021/07/29 09:27:51;;;;;;;;;;;;;;;22.68;65.92;100562.66;5001157;28;1888;-40
2021/07/29 09:30:23;;;;;;;;;;;;;;;22.72;65.86;100564.03;5004136;28;1918;-40
2021/07/29 09:32:55;;;;;;;;;;;;;;;22.64;66.22;100554.94;5011898;28;1606;-41
2021/07/29 09:35:30;;;;;;;;;;;;;;;22.70;66.34;100544.47;5000422;28;1771;-41
2021/07/29 09:38:02;;;;;;;;;;;;;;;22.67;66.19;100545.66;5005189;28;1750;-41
2021/07/29 09:40:41;;;;;;;;;;;;;;;22.66;66.24;100546.69;5010968;28;1845;-41
2021/07/29 09:43:13;;;;;;;;;;;;;;;22.72;66.12;100537.06;5008517;28;1927;-41
2021/07/29 09:45:45;;;;;;;;;;;;;;;22.75;66.41;100552.94;5010973;28;1729;-40
2021/07/29 09:48:12;;;;;;;;;;;;;;;22.75;65.99;100555.63;5010911;28;1907;-40
2021/07/29 09:50:40;;;;;;;;;;;;;;;22.75;65.83;100559.16;5011588;28;1906;-41
2021/07/29 09:53:07;;;;;;;;;;;;;;;22.68;66.24;100549.19;5012078;28;1832;-40
2021/07/29 09:55:36;;;;;;;;;;;;;;;22.66;65.97;100535.03;5013059;28;1536;-40
2021/07/29 09:58:06;;;;;;;;;;;;;;;22.66;66.04;100549.38;5005294;28;1743;-41
2021/07/29 10:00:34;;;;;;;;;;;;;;;22.66;65.99;100527.81;5009845;28;1564;-40
2021/07/29 10:03:08;;;;;;;;;;;;;;;22.63;66.05;100537.06;4999093;28;1318;-40
2021/07/29 10:05:45;;;;;;;;;;;;;;;22.70;66.42;100522.91;5006886;28;1987;-40
2021/07/29 10:08:19;;;;;;;;;;;;;;;22.76;66.29;100531.19;4997939;28;2097;-41
2021/07/29 10:10:56;;;;;;;;;;;;;;;22.73;66.24;100531.53;5005757;28;1965;-40
2021/07/29 10:13:33;;;;;;;;;;;;;;;22.68;66.35;100512.31;5011392;28;1742;-41
2021/07/29 10:16:00;;;;;;;;;;;;;;;22.70;66.59;100514.81;5016177;28;1949;-40
2021/07/29 10:18:55;;;;;;;;;;;;;;;22.72;66.74;100526.28;5004965;28;1542;-40
2021/07/29 10:21:25;;;;;;;;;;;;;;;22.74;66.65;100516.19;5013737;28;1878;-40
2021/07/29 10:23:56;;;;;;;;;;;;;;;22.76;66.67;100524.94;5006599;28;1547;-40
2021/07/29 10:26:23;;;;;;;;;;;;;;;22.71;66.66;100519.22;4998565;28;1780;-41
2021/07/29 10:28:52;;;;;;;;;;;;;;;22.69;66.64;100515.84;5011858;28;1906;-41
2021/07/29 10:31:22;;;;;;;;;;;;;;;22.71;66.47;100497.66;5012067;28;1581;-41
2021/07/29 10:34:11;;;;;;;;;;;;;;;22.69;66.43;100518.56;5014838;28;1654;-40
2021/07/29 10:36:48;;;;;;;;;;;;;;;22.67;66.47;100516.00;5003026;28;1823;-41
2021/07/29 10:39:16;;;;;;;;;;;;;;;22.69;66.68;100513.16;5005714;28;1892;-40
2021/07/29 10:42:04;;;;;;;;;;;;;;;22.68;66.62;100516.84;5016508;28;1733;-40
2021/07/29 10:44:47;;;;;;;;;;;;;;;22.71;66.58;100498.50;5002051;28;1730;-40
2021/07/29 10:47:18;;;;;;;;;;;;;;;22.64;66.68;100498.34;5009269;28;1904;-40
2021/07/29 10:50:12;;;;;;;;;;;;;;;22.72;66.55;100518.19;5006618;28;1969;-40
2021/07/29 10:52:45;;;;;;;;;;;;;;;22.74;66.58;100510.78;4998256;28;2962;-41
2021/07/29 10:55:22;;;;;;;;;;;;;;;22.69;66.51;100499.69;5015373;28;1670;-40
2021/07/29 10:58:14;;;;;;;;;;;;;;;22.69;66.59;100495.13;5014593;28;1862;-40
2021/07/29 11:00:51;;;;;;;;;;;;;;;22.64;66.65;100503.72;5008796;28;1768;-40
2021/07/29 11:03:24;;;;;;;;;;;;;;;22.68;66.62;100500.66;5015431;28;1562;-40
2021/07/29 11:08:37;;;;;;;;;;;;;;;22.75;66.57;100482.84;5006096;28;1867;-40
2021/07/29 11:11:05;;;;;;;;;;;;;;;22.73;66.65;100501.03;4999133;28;1910;-40
2021/07/29 11:13:36;;;;;;;;;;;;;;;22.73;66.97;100492.94;5012841;28;1919;-40
2021/07/29 11:16:06;;;;;;;;;;;;;;;22.72;67.45;100484.03;5014360;28;1892;-41
2021/07/29 11:18:33;;;;;;;;;;;;;;;22.86;67.01;100487.91;5008132;28;1898;-40
2021/07/29 11:21:15;;;;;;;;;;;;;;;22.97;66.54;100475.94;5016386;28;1161;-40
2021/07/29 11:23:46;;;;;;;;;;;;;;;23.06;66.29;100484.88;5010950;28;1774;-41
2021/07/29 11:26:12;;;;;;;;;;;;;;;23.13;65.69;100481.34;5014439;28;1916;-40
2021/07/29 11:28:40;;;;;;;;;;;;;;;23.17;65.39;100474.59;5015468;28;1673;-40
2021/07/29 11:31:10;;;;;;;;;;;;;;;23.20;65.41;100476.97;5008914;28;1902;-40
2021/07/29 11:33:38;;;;;;;;;;;;;;;23.22;65.20;100466.00;5005503;28;1985;-40
2021/07/29 11:36:08;;;;;;;;;;;;;;;23.30;64.78;100486.72;5001672;28;1991;-40
2021/07/29 11:38:35;;;;;;;;;;;;;;;23.27;64.61;100477.13;5004663;28;1765;-41
2021/07/29 11:41:07;;;;;;;;;;;;;;;23.25;64.65;100468.34;5007597;28;1783;-40
2021/07/29 11:43:35;;;;;;;;;;;;;;;23.31;64.86;100474.94;5006276;28;1768;-40
2021/07/29 11:46:08;;;;;;;;;;;;;;;23.31;64.57;100469.53;5010154;28;1598;-40
2021/07/29 11:48:48;;;;;;;;;;;;;;;23.30;64.35;100466.00;5001969;28;1712;-40
2021/07/29 11:51:15;;;;;;;;;;;;;;;23.32;64.55;100452.34;5005689;28;1906;-40
2021/07/29 11:53:42;;;;;;;;;;;;;;;23.27;64.07;100454.69;5007419;28;1754;-40
2021/07/29 11:56:16;;;;;;;;;;;;;;;23.28;63.82;100446.44;5011417;28;1758;-40
2021/07/29 11:58:59;;;;;;;;;;;;;;;23.31;63.28;100456.03;5008094;28;1503;-40
2021/07/29 12:01:25;;;;;;;;;;;;;;;23.29;63.62;100448.09;5008624;28;1772;-40
2021/07/29 12:03:54;;;;;;;;;;;;;;;23.21;63.63;100451.66;5009183;28;1788;-40
2021/07/29 12:06:22;;;;;;;;;;;;;;;23.21;63.37;100445.44;5008057;28;1429;-40
2021/07/29 12:08:52;;;;;;;;;;;;;;;23.27;62.82;100474.41;5010019;28;1843;-40
2021/07/29 12:11:24;;;;;;;;;;;;;;;23.21;63.32;100442.72;5009588;28;2005;-40
2021/07/29 12:13:53;;;;;;;;;;;;;;;23.21;63.21;100448.13;5008621;28;1867;-40
2021/07/29 12:16:41;;;;;;;;;;;;;;;23.18;63.05;100435.84;5009403;28;1858;-40
2021/07/29 12:19:07;;;;;;;;;;;;;;;23.17;62.87;100444.94;5005100;28;1953;-40
2021/07/29 12:21:43;;;;;;;;;;;;;;;23.27;66.21;100438.50;5007291;28;1802;-40
2021/07/29 12:24:14;;;;;;;;;;;;;;;23.37;67.18;100431.06;5010916;28;1374;-40
2021/07/29 12:27:06;;;;;;;;;;;;;;;23.49;67.63;100434.25;5009746;28;1563;-40
2021/07/29 12:29:43;;;;;;;;;;;;;;;23.52;67.13;100432.03;5007302;28;1906;-40
2021/07/29 12:32:23;;;;;;;;;;;;;;;23.46;64.79;100415.69;5009022;28;1775;-40
2021/07/29 12:34:50;;;;;;;;;;;;;;;23.41;64.06;100419.75;5002961;28;2027;-40
2021/07/29 12:37:27;;;;;;;;;;;;;;;23.31;64.39;100400.22;5006395;28;1523;-40
2021/07/29 12:39:56;;;;;;;;;;;;;;;23.30;64.05;100409.34;5004168;28;2123;-40
2021/07/29 12:42:29;;;;;;;;;;;;;;;23.27;63.99;100406.97;5006318;28;1295;-41
2021/07/29 12:44:56;;;;;;;;;;;;;;;23.31;63.65;100404.78;5009848;28;1717;-40
2021/07/29 12:47:22;;;;;;;;;;;;;;;23.29;63.29;100404.94;5009446;28;1606;-40
2021/07/29 12:50:10;;;;;;;;;;;;;;;23.36;63.40;100399.72;5013685;28;1906;-41
2021/07/29 12:52:37;;;;;;;;;;;;;;;23.30;64.63;100398.56;5003141;28;1853;-41
2021/07/29 12:55:07;;;;;;;;;;;;;;;23.33;66.34;100395.47;5008002;28;1767;-41
2021/07/29 13:00:34;;;;;;;;;;;;;;;23.61;68.89;100390.50;5006853;28;2324;-40
2021/07/29 13:03:01;;;;;;;;;;;;;;;23.57;67.98;100399.13;5011695;28;1653;-40
2021/07/29 13:05:28;;;;;;;;;;;;;;;23.26;67.56;100391.81;5006566;28;1618;-40
2021/07/29 13:07:55;;;;;;;;;;;;;;;22.97;66.81;100373.47;5006262;28;1732;-40
2021/07/29 13:10:21;;;;;;;;;;;;;;;22.73;66.52;100377.88;5007641;28;1906;-40
2021/07/29 13:12:51;;;;;;;;;;;;;;;22.58;66.56;100379.56;5009293;28;1406;-40
2021/07/29 13:15:17;;;;;;;;;;;;;;;22.44;66.14;100381.06;5003234;28;1460;-40
2021/07/29 13:17:49;;;;;;;;;;;;;;;22.46;65.75;100370.13;5004711;28;1740;-40